sensor_id;sensor_type;location;lat;lon;timestamp;P1;durP1;ratioP1;P2;durP2;ratioP2
3901;SDS011;1966;49.908;9.156;2023-07-02T00:03:35;4.80;;;4.03;;
3901;SDS011;1966;49.908;9.156;2023-07-02T00:08:36;4.23;;;3.83;;
3901;SDS011;1966;49.908;9.156;2023-07-02T00:13:35;4.20;;;3.80;;
3901;SDS011;1966;49.908;9.156;2023-07-02T00:18:36;8.53;;;4.10;;
3901;SDS011;1966;49.908;9.156;2023-07-02T00:23:35;4.60;;;3.97;;
3901;SDS011;1966;49.908;9.156;2023-07-02T00:28:34;3.93;;;3.37;;
3901;SDS011;1966;49.908;9.156;2023-07-02T00:33:33;7.03;;;3.87;;
3901;SDS011;1966;49.908;9.156;2023-07-02T00:38:34;5.80;;;3.50;;
3901;SDS011;1966;49.908;9.156;2023-07-02T00:43:33;4.33;;;3.93;;
3901;SDS011;1966;49.908;9.156;2023-07-02T00:48:32;3.80;;;3.47;;
3901;SDS011;1966;49.908;9.156;2023-07-02T00:53:32;4.97;;;3.30;;
3901;SDS011;1966;49.908;9.156;2023-07-02T00:58:32;3.50;;;3.20;;
3901;SDS011;1966;49.908;9.156;2023-07-02T01:03:33;4.27;;;3.50;;
3901;SDS011;1966;49.908;9.156;2023-07-02T01:08:35;3.43;;;3.13;;
3901;SDS011;1966;49.908;9.156;2023-07-02T01:13:35;6.23;;;3.17;;
3901;SDS011;1966;49.908;9.156;2023-07-02T01:18:35;8.53;;;3.63;;
3901;SDS011;1966;49.908;9.156;2023-07-02T01:23:37;3.13;;;2.70;;
3901;SDS011;1966;49.908;9.156;2023-07-02T01:28:36;4.90;;;3.37;;
3901;SDS011;1966;49.908;9.156;2023-07-02T01:33:36;6.33;;;3.23;;
3901;SDS011;1966;49.908;9.156;2023-07-02T01:38:35;6.80;;;3.07;;
3901;SDS011;1966;49.908;9.156;2023-07-02T01:43:36;6.30;;;3.10;;
3901;SDS011;1966;49.908;9.156;2023-07-02T01:48:35;3.00;;;2.73;;
3901;SDS011;1966;49.908;9.156;2023-07-02T01:53:34;5.47;;;3.43;;
3901;SDS011;1966;49.908;9.156;2023-07-02T01:58:33;3.93;;;3.27;;
3901;SDS011;1966;49.908;9.156;2023-07-02T02:03:34;3.47;;;3.03;;
3901;SDS011;1966;49.908;9.156;2023-07-02T02:08:33;6.87;;;3.00;;
3901;SDS011;1966;49.908;9.156;2023-07-02T02:13:32;3.77;;;2.97;;
3901;SDS011;1966;49.908;9.156;2023-07-02T02:18:32;3.50;;;2.57;;
3901;SDS011;1966;49.908;9.156;2023-07-02T02:23:32;3.00;;;2.70;;
3901;SDS011;1966;49.908;9.156;2023-07-02T02:28:31;3.63;;;2.90;;
3901;SDS011;1966;49.908;9.156;2023-07-02T02:33:31;4.87;;;3.00;;
3901;SDS011;1966;49.908;9.156;2023-07-02T02:38:32;3.53;;;3.10;;
3901;SDS011;1966;49.908;9.156;2023-07-02T02:43:32;3.23;;;2.73;;
3901;SDS011;1966;49.908;9.156;2023-07-02T02:48:31;3.40;;;3.10;;
3901;SDS011;1966;49.908;9.156;2023-07-02T02:53:30;7.70;;;3.80;;
3901;SDS011;1966;49.908;9.156;2023-07-02T02:58:31;10.00;;;4.53;;
3901;SDS011;1966;49.908;9.156;2023-07-02T03:03:30;6.77;;;4.70;;
3901;SDS011;1966;49.908;9.156;2023-07-02T03:08:32;5.93;;;4.40;;
3901;SDS011;1966;49.908;9.156;2023-07-02T03:13:32;6.17;;;5.17;;
3901;SDS011;1966;49.908;9.156;2023-07-02T03:18:32;7.10;;;4.60;;
3901;SDS011;1966;49.908;9.156;2023-07-02T03:23:31;8.10;;;4.80;;
3901;SDS011;1966;49.908;9.156;2023-07-02T03:28:30;9.40;;;5.20;;
3901;SDS011;1966;49.908;9.156;2023-07-02T03:33:33;9.00;;;4.70;;
3901;SDS011;1966;49.908;9.156;2023-07-02T03:38:32;7.90;;;5.53;;
3901;SDS011;1966;49.908;9.156;2023-07-02T03:43:32;11.30;;;5.73;;
3901;SDS011;1966;49.908;9.156;2023-07-02T03:48:31;9.20;;;5.97;;
3901;SDS011;1966;49.908;9.156;2023-07-02T03:53:32;7.07;;;4.90;;
3901;SDS011;1966;49.908;9.156;2023-07-02T03:58:31;10.37;;;5.77;;
3901;SDS011;1966;49.908;9.156;2023-07-02T04:03:31;6.47;;;4.60;;
3901;SDS011;1966;49.908;9.156;2023-07-02T04:08:32;9.53;;;5.10;;
3901;SDS011;1966;49.908;9.156;2023-07-02T04:13:32;8.47;;;5.10;;
3901;SDS011;1966;49.908;9.156;2023-07-02T04:18:31;7.53;;;5.03;;
3901;SDS011;1966;49.908;9.156;2023-07-02T04:23:32;7.70;;;5.20;;
3901;SDS011;1966;49.908;9.156;2023-07-02T04:28:31;8.27;;;5.10;;
3901;SDS011;1966;49.908;9.156;2023-07-02T04:33:30;10.87;;;5.87;;
3901;SDS011;1966;49.908;9.156;2023-07-02T04:38:35;10.43;;;5.90;;
3901;SDS011;1966;49.908;9.156;2023-07-02T04:43:34;9.33;;;5.73;;
3901;SDS011;1966;49.908;9.156;2023-07-02T04:48:33;9.13;;;6.00;;
3901;SDS011;1966;49.908;9.156;2023-07-02T04:53:32;14.67;;;6.53;;
3901;SDS011;1966;49.908;9.156;2023-07-02T04:58:33;9.97;;;6.07;;
3901;SDS011;1966;49.908;9.156;2023-07-02T05:03:32;8.70;;;6.50;;
3901;SDS011;1966;49.908;9.156;2023-07-02T05:08:32;9.10;;;5.70;;
3901;SDS011;1966;49.908;9.156;2023-07-02T05:13:31;7.77;;;5.73;;
3901;SDS011;1966;49.908;9.156;2023-07-02T05:18:32;8.80;;;5.50;;
3901;SDS011;1966;49.908;9.156;2023-07-02T05:23:31;8.43;;;5.33;;
3901;SDS011;1966;49.908;9.156;2023-07-02T05:28:30;10.33;;;5.80;;
3901;SDS011;1966;49.908;9.156;2023-07-02T05:33:30;8.53;;;5.83;;
3901;SDS011;1966;49.908;9.156;2023-07-02T05:38:32;9.30;;;5.80;;
3901;SDS011;1966;49.908;9.156;2023-07-02T05:43:31;10.73;;;5.83;;
3901;SDS011;1966;49.908;9.156;2023-07-02T05:48:31;14.37;;;7.20;;
3901;SDS011;1966;49.908;9.156;2023-07-02T05:53:30;12.00;;;6.60;;
3901;SDS011;1966;49.908;9.156;2023-07-02T05:58:30;16.17;;;8.23;;
3901;SDS011;1966;49.908;9.156;2023-07-02T06:03:30;13.70;;;7.90;;
3901;SDS011;1966;49.908;9.156;2023-07-02T06:08:29;19.53;;;8.87;;
3901;SDS011;1966;49.908;9.156;2023-07-02T06:13:28;14.43;;;9.60;;
3901;SDS011;1966;49.908;9.156;2023-07-02T06:18:29;13.90;;;9.13;;
3901;SDS011;1966;49.908;9.156;2023-07-02T06:23:29;18.70;;;7.70;;
3901;SDS011;1966;49.908;9.156;2023-07-02T06:28:28;15.03;;;9.40;;
3901;SDS011;1966;49.908;9.156;2023-07-02T06:33:29;13.63;;;8.17;;
3901;SDS011;1966;49.908;9.156;2023-07-02T06:38:28;15.13;;;9.73;;
3901;SDS011;1966;49.908;9.156;2023-07-02T06:43:28;19.63;;;9.80;;
3901;SDS011;1966;49.908;9.156;2023-07-02T06:48:27;18.87;;;9.70;;
3901;SDS011;1966;49.908;9.156;2023-07-02T06:53:28;16.90;;;10.10;;
3901;SDS011;1966;49.908;9.156;2023-07-02T06:58:27;18.10;;;9.57;;
3901;SDS011;1966;49.908;9.156;2023-07-02T07:03:26;20.00;;;9.97;;
3901;SDS011;1966;49.908;9.156;2023-07-02T07:08:26;16.43;;;9.67;;
3901;SDS011;1966;49.908;9.156;2023-07-02T07:13:26;19.67;;;8.87;;
3901;SDS011;1966;49.908;9.156;2023-07-02T07:18:25;16.90;;;10.50;;
3901;SDS011;1966;49.908;9.156;2023-07-02T07:23:25;25.23;;;10.83;;
3901;SDS011;1966;49.908;9.156;2023-07-02T07:28:24;22.60;;;11.10;;
3901;SDS011;1966;49.908;9.156;2023-07-02T07:33:24;16.33;;;9.93;;
3901;SDS011;1966;49.908;9.156;2023-07-02T07:38:25;19.60;;;9.97;;
3901;SDS011;1966;49.908;9.156;2023-07-02T07:43:24;19.83;;;10.80;;
3901;SDS011;1966;49.908;9.156;2023-07-02T07:48:25;18.53;;;10.60;;
3901;SDS011;1966;49.908;9.156;2023-07-02T07:53:24;22.20;;;10.57;;
3901;SDS011;1966;49.908;9.156;2023-07-02T07:58:23;17.03;;;10.17;;
3901;SDS011;1966;49.908;9.156;2023-07-02T08:03:22;15.10;;;10.00;;
3901;SDS011;1966;49.908;9.156;2023-07-02T08:08:23;16.00;;;9.97;;
3901;SDS011;1966;49.908;9.156;2023-07-02T08:13:22;18.90;;;10.33;;
3901;SDS011;1966;49.908;9.156;2023-07-02T08:18:21;16.23;;;10.43;;
3901;SDS011;1966;49.908;9.156;2023-07-02T08:23:21;17.03;;;9.60;;
3901;SDS011;1966;49.908;9.156;2023-07-02T08:28:21;17.10;;;9.73;;
3901;SDS011;1966;49.908;9.156;2023-07-02T08:33:21;14.73;;;8.73;;
3901;SDS011;1966;49.908;9.156;2023-07-02T08:38:20;15.10;;;8.57;;
3901;SDS011;1966;49.908;9.156;2023-07-02T08:43:19;21.10;;;9.63;;
3901;SDS011;1966;49.908;9.156;2023-07-02T08:48:20;14.57;;;9.30;;
3901;SDS011;1966;49.908;9.156;2023-07-02T08:53:21;13.80;;;8.73;;
3901;SDS011;1966;49.908;9.156;2023-07-02T08:58:23;17.90;;;9.17;;
3901;SDS011;1966;49.908;9.156;2023-07-02T09:03:25;13.37;;;8.40;;
3901;SDS011;1966;49.908;9.156;2023-07-02T09:08:24;13.70;;;8.20;;
3901;SDS011;1966;49.908;9.156;2023-07-02T09:13:24;13.40;;;9.10;;
3901;SDS011;1966;49.908;9.156;2023-07-02T09:18:24;15.77;;;9.23;;
3901;SDS011;1966;49.908;9.156;2023-07-02T09:23:31;15.47;;;10.77;;
3901;SDS011;1966;49.908;9.156;2023-07-02T09:28:30;15.17;;;8.97;;
3901;SDS011;1966;49.908;9.156;2023-07-02T09:33:31;14.80;;;9.40;;
3901;SDS011;1966;49.908;9.156;2023-07-02T09:38:30;14.27;;;9.23;;
3901;SDS011;1966;49.908;9.156;2023-07-02T09:43:29;14.80;;;8.00;;
3901;SDS011;1966;49.908;9.156;2023-07-02T09:48:31;11.70;;;8.63;;
3901;SDS011;1966;49.908;9.156;2023-07-02T09:53:32;11.10;;;8.13;;
3901;SDS011;1966;49.908;9.156;2023-07-02T09:58:31;11.20;;;7.60;;
3901;SDS011;1966;49.908;9.156;2023-07-02T10:03:32;12.80;;;7.87;;
3901;SDS011;1966;49.908;9.156;2023-07-02T10:08:31;15.63;;;8.77;;
3901;SDS011;1966;49.908;9.156;2023-07-02T10:13:31;11.60;;;7.77;;
3901;SDS011;1966;49.908;9.156;2023-07-02T10:18:31;10.53;;;8.10;;
3901;SDS011;1966;49.908;9.156;2023-07-02T10:23:34;15.30;;;9.30;;
3901;SDS011;1966;49.908;9.156;2023-07-02T10:28:33;11.50;;;8.60;;
3901;SDS011;1966;49.908;9.156;2023-07-02T10:33:34;14.20;;;9.20;;
3901;SDS011;1966;49.908;9.156;2023-07-02T10:38:33;12.60;;;8.87;;
3901;SDS011;1966;49.908;9.156;2023-07-02T10:43:32;12.30;;;8.63;;
3901;SDS011;1966;49.908;9.156;2023-07-02T10:48:32;11.50;;;9.10;;
3901;SDS011;1966;49.908;9.156;2023-07-02T10:53:32;13.03;;;8.63;;
3901;SDS011;1966;49.908;9.156;2023-07-02T10:58:41;13.10;;;9.40;;
3901;SDS011;1966;49.908;9.156;2023-07-02T11:03:40;13.50;;;9.43;;
3901;SDS011;1966;49.908;9.156;2023-07-02T11:08:41;16.40;;;10.90;;
3901;SDS011;1966;49.908;9.156;2023-07-02T11:13:43;16.00;;;10.10;;
3901;SDS011;1966;49.908;9.156;2023-07-02T11:18:42;14.83;;;9.80;;
3901;SDS011;1966;49.908;9.156;2023-07-02T11:23:43;15.27;;;9.60;;
3901;SDS011;1966;49.908;9.156;2023-07-02T11:28:51;15.93;;;9.93;;
3901;SDS011;1966;49.908;9.156;2023-07-02T11:33:50;16.20;;;10.73;;
3901;SDS011;1966;49.908;9.156;2023-07-02T11:38:51;15.83;;;11.70;;
3901;SDS011;1966;49.908;9.156;2023-07-02T11:43:50;14.73;;;10.20;;
3901;SDS011;1966;49.908;9.156;2023-07-02T11:48:49;13.33;;;10.47;;
3901;SDS011;1966;49.908;9.156;2023-07-02T11:53:50;18.33;;;10.70;;
3901;SDS011;1966;49.908;9.156;2023-07-02T11:58:49;16.10;;;10.43;;
3901;SDS011;1966;49.908;9.156;2023-07-02T12:03:49;17.10;;;11.50;;
3901;SDS011;1966;49.908;9.156;2023-07-02T12:08:48;15.53;;;10.70;;
3901;SDS011;1966;49.908;9.156;2023-07-02T12:13:49;16.80;;;10.83;;
3901;SDS011;1966;49.908;9.156;2023-07-02T12:18:48;16.10;;;11.83;;
3901;SDS011;1966;49.908;9.156;2023-07-02T12:23:47;17.73;;;11.50;;
3901;SDS011;1966;49.908;9.156;2023-07-02T12:28:46;21.27;;;11.00;;
3901;SDS011;1966;49.908;9.156;2023-07-02T12:33:47;23.57;;;11.67;;
3901;SDS011;1966;49.908;9.156;2023-07-02T12:38:46;18.30;;;11.53;;
3901;SDS011;1966;49.908;9.156;2023-07-02T12:43:45;20.07;;;12.37;;
3901;SDS011;1966;49.908;9.156;2023-07-02T12:48:45;19.20;;;12.37;;
3901;SDS011;1966;49.908;9.156;2023-07-02T12:53:45;19.57;;;12.47;;
3901;SDS011;1966;49.908;9.156;2023-07-02T12:58:44;19.33;;;11.27;;
3901;SDS011;1966;49.908;9.156;2023-07-02T13:03:47;20.40;;;11.30;;
3901;SDS011;1966;49.908;9.156;2023-07-02T13:08:47;18.60;;;12.30;;
3901;SDS011;1966;49.908;9.156;2023-07-02T13:13:47;18.33;;;12.17;;
3901;SDS011;1966;49.908;9.156;2023-07-02T13:18:46;20.30;;;13.17;;
3901;SDS011;1966;49.908;9.156;2023-07-02T13:23:45;17.47;;;11.40;;
3901;SDS011;1966;49.908;9.156;2023-07-02T13:28:46;17.37;;;12.57;;
3901;SDS011;1966;49.908;9.156;2023-07-02T13:33:46;17.47;;;12.63;;
3901;SDS011;1966;49.908;9.156;2023-07-02T13:38:46;20.83;;;12.73;;
3901;SDS011;1966;49.908;9.156;2023-07-02T13:43:46;25.10;;;13.07;;
3901;SDS011;1966;49.908;9.156;2023-07-02T13:48:46;21.43;;;13.30;;
3901;SDS011;1966;49.908;9.156;2023-07-02T13:53:46;19.23;;;14.00;;
3901;SDS011;1966;49.908;9.156;2023-07-02T13:58:46;16.27;;;12.33;;
3901;SDS011;1966;49.908;9.156;2023-07-02T14:03:46;18.63;;;12.70;;
3901;SDS011;1966;49.908;9.156;2023-07-02T14:08:45;19.27;;;12.20;;
3901;SDS011;1966;49.908;9.156;2023-07-02T14:13:45;19.00;;;13.57;;
3901;SDS011;1966;49.908;9.156;2023-07-02T14:18:45;21.20;;;13.33;;
3901;SDS011;1966;49.908;9.156;2023-07-02T14:23:44;18.90;;;12.73;;
3901;SDS011;1966;49.908;9.156;2023-07-02T14:28:44;19.60;;;12.80;;
3901;SDS011;1966;49.908;9.156;2023-07-02T14:33:43;17.10;;;12.57;;
3901;SDS011;1966;49.908;9.156;2023-07-02T14:38:43;18.60;;;13.80;;
3901;SDS011;1966;49.908;9.156;2023-07-02T14:43:43;17.77;;;12.63;;
3901;SDS011;1966;49.908;9.156;2023-07-02T14:48:42;18.93;;;13.10;;
3901;SDS011;1966;49.908;9.156;2023-07-02T14:53:41;19.60;;;12.63;;
3901;SDS011;1966;49.908;9.156;2023-07-02T14:58:42;15.10;;;11.37;;
3901;SDS011;1966;49.908;9.156;2023-07-02T15:03:41;17.63;;;12.30;;
3901;SDS011;1966;49.908;9.156;2023-07-02T15:08:40;19.90;;;12.80;;
3901;SDS011;1966;49.908;9.156;2023-07-02T15:13:41;21.50;;;13.63;;
3901;SDS011;1966;49.908;9.156;2023-07-02T15:18:41;17.57;;;12.53;;
3901;SDS011;1966;49.908;9.156;2023-07-02T15:23:40;16.27;;;12.07;;
3901;SDS011;1966;49.908;9.156;2023-07-02T15:28:39;15.03;;;11.53;;
3901;SDS011;1966;49.908;9.156;2023-07-02T15:33:40;16.70;;;12.50;;
3901;SDS011;1966;49.908;9.156;2023-07-02T15:38:40;17.60;;;12.20;;
3901;SDS011;1966;49.908;9.156;2023-07-02T15:43:39;17.33;;;12.87;;
3901;SDS011;1966;49.908;9.156;2023-07-02T15:48:40;17.20;;;12.47;;
3901;SDS011;1966;49.908;9.156;2023-07-02T15:53:40;18.33;;;13.20;;
3901;SDS011;1966;49.908;9.156;2023-07-02T15:58:40;18.00;;;12.43;;
3901;SDS011;1966;49.908;9.156;2023-07-02T16:03:40;17.20;;;11.60;;
3901;SDS011;1966;49.908;9.156;2023-07-02T16:08:40;16.80;;;12.73;;
3901;SDS011;1966;49.908;9.156;2023-07-02T16:13:40;20.47;;;13.30;;
3901;SDS011;1966;49.908;9.156;2023-07-02T16:18:41;16.23;;;12.80;;
3901;SDS011;1966;49.908;9.156;2023-07-02T16:23:41;17.10;;;12.87;;
3901;SDS011;1966;49.908;9.156;2023-07-02T16:28:40;15.85;;;12.27;;
3901;SDS011;1966;49.908;9.156;2023-07-02T16:33:39;19.00;;;12.57;;
3901;SDS011;1966;49.908;9.156;2023-07-02T16:38:40;17.10;;;11.77;;
3901;SDS011;1966;49.908;9.156;2023-07-02T16:43:39;20.73;;;12.83;;
3901;SDS011;1966;49.908;9.156;2023-07-02T16:48:38;18.77;;;11.23;;
3901;SDS011;1966;49.908;9.156;2023-07-02T16:53:39;25.00;;;12.83;;
3901;SDS011;1966;49.908;9.156;2023-07-02T16:58:38;16.50;;;11.73;;
3901;SDS011;1966;49.908;9.156;2023-07-02T17:03:37;23.00;;;12.27;;
3901;SDS011;1966;49.908;9.156;2023-07-02T17:08:38;18.57;;;12.90;;
3901;SDS011;1966;49.908;9.156;2023-07-02T17:13:39;19.53;;;13.50;;
3901;SDS011;1966;49.908;9.156;2023-07-02T17:18:38;19.50;;;12.50;;
3901;SDS011;1966;49.908;9.156;2023-07-02T17:23:38;22.60;;;12.40;;
3901;SDS011;1966;49.908;9.156;2023-07-02T17:28:37;17.40;;;12.30;;
3901;SDS011;1966;49.908;9.156;2023-07-02T17:33:37;17.30;;;11.90;;
3901;SDS011;1966;49.908;9.156;2023-07-02T17:38:37;16.57;;;11.03;;
3901;SDS011;1966;49.908;9.156;2023-07-02T17:43:36;16.23;;;12.00;;
3901;SDS011;1966;49.908;9.156;2023-07-02T17:48:35;17.80;;;11.40;;
3901;SDS011;1966;49.908;9.156;2023-07-02T17:53:36;17.77;;;12.00;;
3901;SDS011;1966;49.908;9.156;2023-07-02T17:58:35;17.77;;;12.30;;
3901;SDS011;1966;49.908;9.156;2023-07-02T18:03:34;20.17;;;11.00;;
3901;SDS011;1966;49.908;9.156;2023-07-02T18:08:33;19.03;;;10.93;;
3901;SDS011;1966;49.908;9.156;2023-07-02T18:13:34;21.83;;;12.40;;
3901;SDS011;1966;49.908;9.156;2023-07-02T18:18:33;16.57;;;11.93;;
3901;SDS011;1966;49.908;9.156;2023-07-02T18:23:32;18.93;;;12.97;;
3901;SDS011;1966;49.908;9.156;2023-07-02T18:28:33;19.67;;;13.03;;
3901;SDS011;1966;49.908;9.156;2023-07-02T18:33:32;22.10;;;13.17;;
3901;SDS011;1966;49.908;9.156;2023-07-02T18:38:32;26.53;;;13.83;;
3901;SDS011;1966;49.908;9.156;2023-07-02T18:43:31;20.83;;;11.70;;
3901;SDS011;1966;49.908;9.156;2023-07-02T18:48:32;20.37;;;12.30;;
3901;SDS011;1966;49.908;9.156;2023-07-02T18:53:32;20.67;;;12.30;;
3901;SDS011;1966;49.908;9.156;2023-07-02T18:58:32;21.40;;;11.53;;
3901;SDS011;1966;49.908;9.156;2023-07-02T19:03:32;31.93;;;11.57;;
3901;SDS011;1966;49.908;9.156;2023-07-02T19:08:32;24.40;;;13.27;;
3901;SDS011;1966;49.908;9.156;2023-07-02T19:13:31;31.13;;;12.03;;
3901;SDS011;1966;49.908;9.156;2023-07-02T19:18:30;19.40;;;11.63;;
3901;SDS011;1966;49.908;9.156;2023-07-02T19:23:31;20.60;;;11.67;;
3901;SDS011;1966;49.908;9.156;2023-07-02T19:28:30;22.10;;;12.40;;
3901;SDS011;1966;49.908;9.156;2023-07-02T19:33:29;19.03;;;11.53;;
3901;SDS011;1966;49.908;9.156;2023-07-02T19:38:29;20.97;;;12.37;;
3901;SDS011;1966;49.908;9.156;2023-07-02T19:43:30;19.20;;;11.87;;
3901;SDS011;1966;49.908;9.156;2023-07-02T19:48:29;23.40;;;13.30;;
3901;SDS011;1966;49.908;9.156;2023-07-02T19:53:29;17.03;;;11.00;;
3901;SDS011;1966;49.908;9.156;2023-07-02T19:58:29;23.60;;;11.50;;
3901;SDS011;1966;49.908;9.156;2023-07-02T20:03:29;26.70;;;12.73;;
3901;SDS011;1966;49.908;9.156;2023-07-02T20:08:29;22.27;;;12.77;;
3901;SDS011;1966;49.908;9.156;2023-07-02T20:13:28;18.07;;;11.50;;
3901;SDS011;1966;49.908;9.156;2023-07-02T20:18:27;19.87;;;12.17;;
3901;SDS011;1966;49.908;9.156;2023-07-02T20:23:28;28.73;;;12.07;;
3901;SDS011;1966;49.908;9.156;2023-07-02T20:28:27;20.67;;;12.33;;
3901;SDS011;1966;49.908;9.156;2023-07-02T20:33:26;20.40;;;12.50;;
3901;SDS011;1966;49.908;9.156;2023-07-02T20:38:25;20.97;;;11.83;;
3901;SDS011;1966;49.908;9.156;2023-07-02T20:43:26;24.93;;;13.33;;
3901;SDS011;1966;49.908;9.156;2023-07-02T20:48:26;22.13;;;12.10;;
3901;SDS011;1966;49.908;9.156;2023-07-02T20:53:25;20.47;;;11.13;;
3901;SDS011;1966;49.908;9.156;2023-07-02T20:58:26;22.47;;;12.43;;
3901;SDS011;1966;49.908;9.156;2023-07-02T21:03:25;19.27;;;11.83;;
3901;SDS011;1966;49.908;9.156;2023-07-02T21:08:25;21.47;;;11.80;;
3901;SDS011;1966;49.908;9.156;2023-07-02T21:13:24;17.13;;;11.13;;
3901;SDS011;1966;49.908;9.156;2023-07-02T21:18:25;21.47;;;12.43;;
3901;SDS011;1966;49.908;9.156;2023-07-02T21:23:24;23.87;;;12.27;;
3901;SDS011;1966;49.908;9.156;2023-07-02T21:28:24;23.67;;;10.60;;
3901;SDS011;1966;49.908;9.156;2023-07-02T21:33:24;22.23;;;10.90;;
3901;SDS011;1966;49.908;9.156;2023-07-02T21:38:24;22.87;;;12.77;;
3901;SDS011;1966;49.908;9.156;2023-07-02T21:43:23;17.73;;;11.17;;
3901;SDS011;1966;49.908;9.156;2023-07-02T21:48:23;24.73;;;12.10;;
3901;SDS011;1966;49.908;9.156;2023-07-02T21:53:23;19.77;;;11.33;;
3901;SDS011;1966;49.908;9.156;2023-07-02T21:58:23;20.43;;;10.90;;
3901;SDS011;1966;49.908;9.156;2023-07-02T22:03:22;21.27;;;11.40;;
3901;SDS011;1966;49.908;9.156;2023-07-02T22:08:21;23.43;;;11.33;;
3901;SDS011;1966;49.908;9.156;2023-07-02T22:13:22;23.97;;;11.73;;
3901;SDS011;1966;49.908;9.156;2023-07-02T22:18:21;18.37;;;10.43;;
3901;SDS011;1966;49.908;9.156;2023-07-02T22:23:20;20.80;;;11.27;;
3901;SDS011;1966;49.908;9.156;2023-07-02T22:28:21;19.93;;;10.30;;
3901;SDS011;1966;49.908;9.156;2023-07-02T22:33:20;22.80;;;11.60;;
3901;SDS011;1966;49.908;9.156;2023-07-02T22:38:19;19.87;;;11.43;;
3901;SDS011;1966;49.908;9.156;2023-07-02T22:43:19;22.60;;;10.90;;
3901;SDS011;1966;49.908;9.156;2023-07-02T22:48:20;21.43;;;10.70;;
3901;SDS011;1966;49.908;9.156;2023-07-02T22:53:19;20.37;;;10.60;;
3901;SDS011;1966;49.908;9.156;2023-07-02T22:58:18;21.10;;;9.80;;
3901;SDS011;1966;49.908;9.156;2023-07-02T23:03:17;19.83;;;10.63;;
3901;SDS011;1966;49.908;9.156;2023-07-02T23:08:18;24.23;;;11.43;;
3901;SDS011;1966;49.908;9.156;2023-07-02T23:13:17;22.80;;;10.80;;
3901;SDS011;1966;49.908;9.156;2023-07-02T23:18:17;19.90;;;10.70;;
3901;SDS011;1966;49.908;9.156;2023-07-02T23:23:16;27.37;;;12.20;;
3901;SDS011;1966;49.908;9.156;2023-07-02T23:28:16;18.07;;;9.57;;
3901;SDS011;1966;49.908;9.156;2023-07-02T23:33:16;20.50;;;11.27;;
3901;SDS011;1966;49.908;9.156;2023-07-02T23:38:15;28.17;;;10.30;;
3901;SDS011;1966;49.908;9.156;2023-07-02T23:43:17;19.60;;;10.33;;
3901;SDS011;1966;49.908;9.156;2023-07-02T23:48:16;23.40;;;11.30;;
3901;SDS011;1966;49.908;9.156;2023-07-02T23:53:16;19.93;;;10.60;;
3901;SDS011;1966;49.908;9.156;2023-07-02T23:58:15;16.77;;;9.50;;
